sensor_id;sensor_type;location;lat;lon;timestamp;P1;durP1;ratioP1;P2;durP2;ratioP2
22282;SDS011;11310;51.528;21.204;2022-10-17T00:01:17;15.63;;;8.32;;
22282;SDS011;11310;51.528;21.204;2022-10-17T00:03:46;17.95;;;9.32;;
22282;SDS011;11310;51.528;21.204;2022-10-17T00:06:17;18.88;;;9.60;;
22282;SDS011;11310;51.528;21.204;2022-10-17T00:08:45;16.92;;;8.95;;
22282;SDS011;11310;51.528;21.204;2022-10-17T00:11:14;18.55;;;9.27;;
22282;SDS011;11310;51.528;21.204;2022-10-17T00:13:45;17.90;;;8.93;;
22282;SDS011;11310;51.528;21.204;2022-10-17T00:16:15;13.95;;;8.88;;
22282;SDS011;11310;51.528;21.204;2022-10-17T00:18:51;18.27;;;8.88;;
22282;SDS011;11310;51.528;21.204;2022-10-17T00:21:23;16.55;;;9.18;;
22282;SDS011;11310;51.528;21.204;2022-10-17T00:23:52;15.55;;;9.07;;
22282;SDS011;11310;51.528;21.204;2022-10-17T00:26:22;17.20;;;9.55;;
22282;SDS011;11310;51.528;21.204;2022-10-17T00:28:51;18.92;;;9.73;;
22282;SDS011;11310;51.528;21.204;2022-10-17T00:31:20;14.07;;;8.35;;
22282;SDS011;11310;51.528;21.204;2022-10-17T00:33:50;17.75;;;9.63;;
22282;SDS011;11310;51.528;21.204;2022-10-17T00:36:21;15.93;;;8.27;;
22282;SDS011;11310;51.528;21.204;2022-10-17T00:41:22;17.90;;;8.85;;
22282;SDS011;11310;51.528;21.204;2022-10-17T00:43:53;19.70;;;9.30;;
22282;SDS011;11310;51.528;21.204;2022-10-17T00:46:24;19.98;;;9.20;;
22282;SDS011;11310;51.528;21.204;2022-10-17T00:48:55;20.65;;;9.52;;
22282;SDS011;11310;51.528;21.204;2022-10-17T00:51:28;14.20;;;8.63;;
22282;SDS011;11310;51.528;21.204;2022-10-17T00:54:01;16.73;;;8.20;;
22282;SDS011;11310;51.528;21.204;2022-10-17T00:56:30;17.35;;;8.45;;
22282;SDS011;11310;51.528;21.204;2022-10-17T00:58:59;18.30;;;9.70;;
22282;SDS011;11310;51.528;21.204;2022-10-17T01:01:30;15.57;;;8.43;;
22282;SDS011;11310;51.528;21.204;2022-10-17T01:03:59;14.63;;;8.82;;
22282;SDS011;11310;51.528;21.204;2022-10-17T01:06:48;17.27;;;8.73;;
22282;SDS011;11310;51.528;21.204;2022-10-17T01:09:18;22.58;;;9.60;;
22282;SDS011;11310;51.528;21.204;2022-10-17T01:11:48;18.65;;;9.45;;
22282;SDS011;11310;51.528;21.204;2022-10-17T01:14:25;19.92;;;9.82;;
22282;SDS011;11310;51.528;21.204;2022-10-17T01:17:01;17.85;;;9.68;;
22282;SDS011;11310;51.528;21.204;2022-10-17T01:19:45;21.33;;;9.80;;
22282;SDS011;11310;51.528;21.204;2022-10-17T01:22:35;15.13;;;8.25;;
22282;SDS011;11310;51.528;21.204;2022-10-17T01:25:22;17.98;;;9.00;;
22282;SDS011;11310;51.528;21.204;2022-10-17T01:28:15;14.88;;;8.57;;
22282;SDS011;11310;51.528;21.204;2022-10-17T01:30:59;14.43;;;8.43;;
22282;SDS011;11310;51.528;21.204;2022-10-17T01:33:38;20.85;;;8.90;;
22282;SDS011;11310;51.528;21.204;2022-10-17T01:36:26;16.75;;;9.32;;
22282;SDS011;11310;51.528;21.204;2022-10-17T01:41:38;17.77;;;8.80;;
22282;SDS011;11310;51.528;21.204;2022-10-17T01:44:11;18.13;;;9.13;;
22282;SDS011;11310;51.528;21.204;2022-10-17T01:46:47;17.23;;;9.68;;
22282;SDS011;11310;51.528;21.204;2022-10-17T01:49:18;16.65;;;9.35;;
22282;SDS011;11310;51.528;21.204;2022-10-17T01:51:53;18.02;;;9.07;;
22282;SDS011;11310;51.528;21.204;2022-10-17T01:54:27;18.40;;;9.13;;
22282;SDS011;11310;51.528;21.204;2022-10-17T01:57:02;19.38;;;9.50;;
22282;SDS011;11310;51.528;21.204;2022-10-17T01:59:36;16.70;;;8.77;;
22282;SDS011;11310;51.528;21.204;2022-10-17T02:02:10;17.73;;;8.77;;
22282;SDS011;11310;51.528;21.204;2022-10-17T02:04:42;16.75;;;9.55;;
22282;SDS011;11310;51.528;21.204;2022-10-17T02:07:11;16.05;;;8.32;;
22282;SDS011;11310;51.528;21.204;2022-10-17T02:09:40;20.58;;;9.63;;
22282;SDS011;11310;51.528;21.204;2022-10-17T02:12:14;15.77;;;9.23;;
22282;SDS011;11310;51.528;21.204;2022-10-17T02:15:07;17.70;;;9.90;;
22282;SDS011;11310;51.528;21.204;2022-10-17T02:17:46;20.77;;;10.40;;
22282;SDS011;11310;51.528;21.204;2022-10-17T02:20:23;16.90;;;9.10;;
22282;SDS011;11310;51.528;21.204;2022-10-17T02:22:57;17.80;;;9.90;;
22282;SDS011;11310;51.528;21.204;2022-10-17T02:25:34;17.88;;;9.15;;
22282;SDS011;11310;51.528;21.204;2022-10-17T02:28:10;17.02;;;9.35;;
22282;SDS011;11310;51.528;21.204;2022-10-17T02:30:49;16.35;;;9.45;;
22282;SDS011;11310;51.528;21.204;2022-10-17T02:33:26;19.52;;;9.85;;
22282;SDS011;11310;51.528;21.204;2022-10-17T02:35:59;21.17;;;9.38;;
22282;SDS011;11310;51.528;21.204;2022-10-17T02:38:31;18.48;;;9.20;;
22282;SDS011;11310;51.528;21.204;2022-10-17T02:41:02;17.75;;;9.63;;
22282;SDS011;11310;51.528;21.204;2022-10-17T02:43:33;16.58;;;9.45;;
22282;SDS011;11310;51.528;21.204;2022-10-17T02:46:03;16.42;;;9.00;;
22282;SDS011;11310;51.528;21.204;2022-10-17T02:48:36;19.83;;;9.45;;
22282;SDS011;11310;51.528;21.204;2022-10-17T02:51:11;19.10;;;10.18;;
22282;SDS011;11310;51.528;21.204;2022-10-17T02:53:48;19.85;;;9.20;;
22282;SDS011;11310;51.528;21.204;2022-10-17T02:56:22;16.08;;;8.55;;
22282;SDS011;11310;51.528;21.204;2022-10-17T02:58:54;16.60;;;9.57;;
22282;SDS011;11310;51.528;21.204;2022-10-17T03:01:26;18.25;;;9.77;;
22282;SDS011;11310;51.528;21.204;2022-10-17T03:04:05;16.63;;;9.55;;
22282;SDS011;11310;51.528;21.204;2022-10-17T03:06:37;18.88;;;9.73;;
22282;SDS011;11310;51.528;21.204;2022-10-17T03:09:08;16.88;;;10.25;;
22282;SDS011;11310;51.528;21.204;2022-10-17T03:11:36;17.23;;;9.20;;
22282;SDS011;11310;51.528;21.204;2022-10-17T03:14:06;17.33;;;9.63;;
22282;SDS011;11310;51.528;21.204;2022-10-17T03:16:35;20.85;;;10.02;;
22282;SDS011;11310;51.528;21.204;2022-10-17T03:19:05;17.75;;;9.05;;
22282;SDS011;11310;51.528;21.204;2022-10-17T03:21:35;21.23;;;9.40;;
22282;SDS011;11310;51.528;21.204;2022-10-17T03:24:05;20.98;;;9.88;;
22282;SDS011;11310;51.528;21.204;2022-10-17T03:26:34;16.92;;;8.73;;
22282;SDS011;11310;51.528;21.204;2022-10-17T03:29:03;17.38;;;9.07;;
22282;SDS011;11310;51.528;21.204;2022-10-17T03:31:34;17.13;;;9.50;;
22282;SDS011;11310;51.528;21.204;2022-10-17T03:34:06;21.75;;;9.85;;
22282;SDS011;11310;51.528;21.204;2022-10-17T03:36:35;17.05;;;9.43;;
22282;SDS011;11310;51.528;21.204;2022-10-17T03:39:05;16.98;;;9.25;;
22282;SDS011;11310;51.528;21.204;2022-10-17T03:41:34;16.98;;;9.18;;
22282;SDS011;11310;51.528;21.204;2022-10-17T03:44:03;18.58;;;9.90;;
22282;SDS011;11310;51.528;21.204;2022-10-17T03:46:32;18.70;;;10.07;;
22282;SDS011;11310;51.528;21.204;2022-10-17T03:49:03;19.33;;;9.38;;
22282;SDS011;11310;51.528;21.204;2022-10-17T03:51:33;17.15;;;9.40;;
22282;SDS011;11310;51.528;21.204;2022-10-17T03:54:10;18.02;;;9.70;;
22282;SDS011;11310;51.528;21.204;2022-10-17T03:56:39;15.55;;;9.15;;
22282;SDS011;11310;51.528;21.204;2022-10-17T03:59:12;20.20;;;9.85;;
22282;SDS011;11310;51.528;21.204;2022-10-17T04:01:47;16.38;;;8.70;;
22282;SDS011;11310;51.528;21.204;2022-10-17T04:04:17;20.48;;;9.95;;
22282;SDS011;11310;51.528;21.204;2022-10-17T04:06:47;20.80;;;10.57;;
22282;SDS011;11310;51.528;21.204;2022-10-17T04:09:15;20.00;;;10.23;;
22282;SDS011;11310;51.528;21.204;2022-10-17T04:12:07;18.40;;;10.40;;
22282;SDS011;11310;51.528;21.204;2022-10-17T04:14:37;19.52;;;10.27;;
22282;SDS011;11310;51.528;21.204;2022-10-17T04:17:06;23.58;;;11.20;;
22282;SDS011;11310;51.528;21.204;2022-10-17T04:19:38;18.20;;;9.82;;
22282;SDS011;11310;51.528;21.204;2022-10-17T04:22:09;20.73;;;9.73;;
22282;SDS011;11310;51.528;21.204;2022-10-17T04:24:38;17.33;;;8.73;;
22282;SDS011;11310;51.528;21.204;2022-10-17T04:27:19;16.42;;;9.40;;
22282;SDS011;11310;51.528;21.204;2022-10-17T04:29:48;18.58;;;10.25;;
22282;SDS011;11310;51.528;21.204;2022-10-17T04:32:22;17.70;;;9.88;;
22282;SDS011;11310;51.528;21.204;2022-10-17T04:35:15;18.52;;;9.60;;
22282;SDS011;11310;51.528;21.204;2022-10-17T04:37:50;16.65;;;9.13;;
22282;SDS011;11310;51.528;21.204;2022-10-17T04:40:19;17.70;;;9.10;;
22282;SDS011;11310;51.528;21.204;2022-10-17T04:42:51;16.92;;;9.48;;
22282;SDS011;11310;51.528;21.204;2022-10-17T04:45:25;18.25;;;10.05;;
22282;SDS011;11310;51.528;21.204;2022-10-17T04:48:00;16.42;;;8.95;;
22282;SDS011;11310;51.528;21.204;2022-10-17T04:50:29;18.40;;;9.93;;
22282;SDS011;11310;51.528;21.204;2022-10-17T04:53:26;18.88;;;9.93;;
22282;SDS011;11310;51.528;21.204;2022-10-17T04:55:56;24.15;;;9.98;;
22282;SDS011;11310;51.528;21.204;2022-10-17T04:58:24;19.67;;;10.32;;
22282;SDS011;11310;51.528;21.204;2022-10-17T05:00:55;19.90;;;9.48;;
22282;SDS011;11310;51.528;21.204;2022-10-17T05:03:28;17.77;;;8.63;;
22282;SDS011;11310;51.528;21.204;2022-10-17T05:06:01;19.40;;;9.48;;
22282;SDS011;11310;51.528;21.204;2022-10-17T05:08:33;19.20;;;9.80;;
22282;SDS011;11310;51.528;21.204;2022-10-17T05:11:02;23.10;;;9.30;;
22282;SDS011;11310;51.528;21.204;2022-10-17T05:13:34;20.83;;;10.93;;
22282;SDS011;11310;51.528;21.204;2022-10-17T05:16:04;32.65;;;12.48;;
22282;SDS011;11310;51.528;21.204;2022-10-17T05:18:34;32.80;;;15.35;;
22282;SDS011;11310;51.528;21.204;2022-10-17T05:21:04;49.30;;;23.30;;
22282;SDS011;11310;51.528;21.204;2022-10-17T05:23:36;47.83;;;20.90;;
22282;SDS011;11310;51.528;21.204;2022-10-17T05:26:06;47.83;;;20.98;;
22282;SDS011;11310;51.528;21.204;2022-10-17T05:28:35;39.67;;;16.55;;
22282;SDS011;11310;51.528;21.204;2022-10-17T05:31:05;39.90;;;18.23;;
22282;SDS011;11310;51.528;21.204;2022-10-17T05:33:36;37.58;;;16.00;;
22282;SDS011;11310;51.528;21.204;2022-10-17T05:36:06;27.70;;;13.93;;
22282;SDS011;11310;51.528;21.204;2022-10-17T05:38:37;29.90;;;14.25;;
22282;SDS011;11310;51.528;21.204;2022-10-17T05:41:06;31.45;;;14.98;;
22282;SDS011;11310;51.528;21.204;2022-10-17T05:43:34;30.58;;;15.52;;
22282;SDS011;11310;51.528;21.204;2022-10-17T05:46:04;37.97;;;18.52;;
22282;SDS011;11310;51.528;21.204;2022-10-17T05:48:35;41.42;;;18.88;;
22282;SDS011;11310;51.528;21.204;2022-10-17T05:51:06;42.15;;;20.52;;
22282;SDS011;11310;51.528;21.204;2022-10-17T05:53:38;36.20;;;19.20;;
22282;SDS011;11310;51.528;21.204;2022-10-17T05:56:14;41.42;;;18.20;;
22282;SDS011;11310;51.528;21.204;2022-10-17T05:58:43;42.42;;;18.38;;
22282;SDS011;11310;51.528;21.204;2022-10-17T06:01:39;36.50;;;18.60;;
22282;SDS011;11310;51.528;21.204;2022-10-17T06:04:08;33.08;;;15.70;;
22282;SDS011;11310;51.528;21.204;2022-10-17T06:06:37;26.63;;;14.07;;
22282;SDS011;11310;51.528;21.204;2022-10-17T06:09:09;26.88;;;14.05;;
22282;SDS011;11310;51.528;21.204;2022-10-17T06:11:42;34.40;;;14.57;;
22282;SDS011;11310;51.528;21.204;2022-10-17T06:14:11;32.80;;;16.52;;
22282;SDS011;11310;51.528;21.204;2022-10-17T06:16:40;36.78;;;17.05;;
22282;SDS011;11310;51.528;21.204;2022-10-17T06:19:09;47.30;;;23.00;;
22282;SDS011;11310;51.528;21.204;2022-10-17T06:21:39;39.88;;;21.17;;
22282;SDS011;11310;51.528;21.204;2022-10-17T06:24:13;43.05;;;19.95;;
22282;SDS011;11310;51.528;21.204;2022-10-17T06:26:42;41.65;;;21.33;;
22282;SDS011;11310;51.528;21.204;2022-10-17T06:29:14;35.30;;;18.40;;
22282;SDS011;11310;51.528;21.204;2022-10-17T06:31:49;36.75;;;18.75;;
22282;SDS011;11310;51.528;21.204;2022-10-17T06:34:19;32.35;;;16.77;;
22282;SDS011;11310;51.528;21.204;2022-10-17T06:36:48;38.58;;;17.13;;
22282;SDS011;11310;51.528;21.204;2022-10-17T06:39:19;39.95;;;19.70;;
22282;SDS011;11310;51.528;21.204;2022-10-17T06:42:01;36.47;;;18.48;;
22282;SDS011;11310;51.528;21.204;2022-10-17T06:44:51;45.80;;;22.05;;
22282;SDS011;11310;51.528;21.204;2022-10-17T06:47:49;46.03;;;25.33;;
22282;SDS011;11310;51.528;21.204;2022-10-17T06:50:40;36.80;;;20.00;;
22282;SDS011;11310;51.528;21.204;2022-10-17T06:53:13;35.35;;;18.00;;
22282;SDS011;11310;51.528;21.204;2022-10-17T06:55:47;34.25;;;16.50;;
22282;SDS011;11310;51.528;21.204;2022-10-17T06:58:45;36.25;;;15.25;;
22282;SDS011;11310;51.528;21.204;2022-10-17T07:01:33;26.67;;;14.25;;
22282;SDS011;11310;51.528;21.204;2022-10-17T07:04:04;21.38;;;12.77;;
22282;SDS011;11310;51.528;21.204;2022-10-17T07:06:33;23.10;;;13.25;;
22282;SDS011;11310;51.528;21.204;2022-10-17T07:09:14;23.00;;;11.10;;
22282;SDS011;11310;51.528;21.204;2022-10-17T07:11:44;23.98;;;12.13;;
22282;SDS011;11310;51.528;21.204;2022-10-17T07:14:16;21.77;;;11.80;;
22282;SDS011;11310;51.528;21.204;2022-10-17T07:16:54;23.85;;;11.30;;
22282;SDS011;11310;51.528;21.204;2022-10-17T07:19:24;21.55;;;11.15;;
22282;SDS011;11310;51.528;21.204;2022-10-17T07:21:54;18.98;;;10.82;;
22282;SDS011;11310;51.528;21.204;2022-10-17T07:24:24;19.65;;;10.68;;
22282;SDS011;11310;51.528;21.204;2022-10-17T07:27:00;18.90;;;9.90;;
22282;SDS011;11310;51.528;21.204;2022-10-17T07:29:30;20.75;;;11.52;;
22282;SDS011;11310;51.528;21.204;2022-10-17T07:32:08;20.10;;;10.88;;
22282;SDS011;11310;51.528;21.204;2022-10-17T07:34:37;22.70;;;11.02;;
22282;SDS011;11310;51.528;21.204;2022-10-17T07:37:08;21.15;;;10.85;;
22282;SDS011;11310;51.528;21.204;2022-10-17T07:39:41;26.70;;;11.02;;
22282;SDS011;11310;51.528;21.204;2022-10-17T07:42:11;18.88;;;10.93;;
22282;SDS011;11310;51.528;21.204;2022-10-17T07:44:40;22.92;;;12.77;;
22282;SDS011;11310;51.528;21.204;2022-10-17T07:47:14;25.13;;;12.82;;
22282;SDS011;11310;51.528;21.204;2022-10-17T07:49:44;28.30;;;12.38;;
22282;SDS011;11310;51.528;21.204;2022-10-17T07:52:13;23.63;;;12.50;;
22282;SDS011;11310;51.528;21.204;2022-10-17T07:54:42;27.17;;;11.57;;
22282;SDS011;11310;51.528;21.204;2022-10-17T07:57:13;19.92;;;11.70;;
22282;SDS011;11310;51.528;21.204;2022-10-17T07:59:42;20.80;;;11.85;;
22282;SDS011;11310;51.528;21.204;2022-10-17T08:04:48;21.00;;;10.60;;
22282;SDS011;11310;51.528;21.204;2022-10-17T08:07:22;25.38;;;12.07;;
22282;SDS011;11310;51.528;21.204;2022-10-17T08:09:55;19.13;;;11.00;;
22282;SDS011;11310;51.528;21.204;2022-10-17T08:12:25;18.35;;;10.32;;
22282;SDS011;11310;51.528;21.204;2022-10-17T08:14:58;19.20;;;10.60;;
22282;SDS011;11310;51.528;21.204;2022-10-17T08:17:27;21.02;;;11.07;;
22282;SDS011;11310;51.528;21.204;2022-10-17T08:19:56;19.27;;;10.23;;
22282;SDS011;11310;51.528;21.204;2022-10-17T08:22:28;24.98;;;11.00;;
22282;SDS011;11310;51.528;21.204;2022-10-17T08:24:57;21.70;;;11.05;;
22282;SDS011;11310;51.528;21.204;2022-10-17T08:27:28;18.30;;;11.30;;
22282;SDS011;11310;51.528;21.204;2022-10-17T08:29:57;18.83;;;10.82;;
22282;SDS011;11310;51.528;21.204;2022-10-17T08:32:26;17.52;;;10.18;;
22282;SDS011;11310;51.528;21.204;2022-10-17T08:34:56;21.90;;;9.82;;
22282;SDS011;11310;51.528;21.204;2022-10-17T08:37:27;15.97;;;9.60;;
22282;SDS011;11310;51.528;21.204;2022-10-17T08:39:58;16.08;;;9.57;;
22282;SDS011;11310;51.528;21.204;2022-10-17T08:42:37;18.23;;;9.48;;
22282;SDS011;11310;51.528;21.204;2022-10-17T08:45:20;21.23;;;10.07;;
22282;SDS011;11310;51.528;21.204;2022-10-17T08:47:56;17.70;;;10.15;;
22282;SDS011;11310;51.528;21.204;2022-10-17T08:50:31;16.63;;;10.10;;
22282;SDS011;11310;51.528;21.204;2022-10-17T08:53:07;18.48;;;9.48;;
22282;SDS011;11310;51.528;21.204;2022-10-17T08:55:43;16.40;;;8.70;;
22282;SDS011;11310;51.528;21.204;2022-10-17T08:58:19;16.52;;;9.70;;
22282;SDS011;11310;51.528;21.204;2022-10-17T09:00:50;14.57;;;8.60;;
22282;SDS011;11310;51.528;21.204;2022-10-17T09:06:33;16.02;;;8.57;;
22282;SDS011;11310;51.528;21.204;2022-10-17T09:09:08;15.32;;;8.02;;
22282;SDS011;11310;51.528;21.204;2022-10-17T09:11:51;15.73;;;8.18;;
22282;SDS011;11310;51.528;21.204;2022-10-17T09:14:41;16.00;;;8.07;;
22282;SDS011;11310;51.528;21.204;2022-10-17T09:17:24;18.80;;;8.45;;
22282;SDS011;11310;51.528;21.204;2022-10-17T09:20:03;12.15;;;7.80;;
22282;SDS011;11310;51.528;21.204;2022-10-17T09:22:37;16.85;;;8.13;;
22282;SDS011;11310;51.528;21.204;2022-10-17T09:25:12;14.40;;;7.93;;
22282;SDS011;11310;51.528;21.204;2022-10-17T09:27:45;12.07;;;7.30;;
22282;SDS011;11310;51.528;21.204;2022-10-17T09:30:24;18.17;;;7.95;;
22282;SDS011;11310;51.528;21.204;2022-10-17T09:33:12;13.52;;;7.80;;
22282;SDS011;11310;51.528;21.204;2022-10-17T09:36:00;14.13;;;7.65;;
22282;SDS011;11310;51.528;21.204;2022-10-17T09:38:35;14.20;;;8.07;;
22282;SDS011;11310;51.528;21.204;2022-10-17T09:41:11;15.40;;;7.90;;
22282;SDS011;11310;51.528;21.204;2022-10-17T09:44:13;15.20;;;8.02;;
22282;SDS011;11310;51.528;21.204;2022-10-17T09:46:55;14.60;;;7.50;;
22282;SDS011;11310;51.528;21.204;2022-10-17T09:49:42;13.10;;;8.10;;
22282;SDS011;11310;51.528;21.204;2022-10-17T09:52:15;14.05;;;8.40;;
22282;SDS011;11310;51.528;21.204;2022-10-17T09:54:46;19.23;;;8.55;;
22282;SDS011;11310;51.528;21.204;2022-10-17T09:57:17;13.65;;;7.75;;
22282;SDS011;11310;51.528;21.204;2022-10-17T09:59:58;12.32;;;7.65;;
22282;SDS011;11310;51.528;21.204;2022-10-17T10:02:42;13.93;;;7.97;;
22282;SDS011;11310;51.528;21.204;2022-10-17T10:05:14;13.15;;;7.97;;
22282;SDS011;11310;51.528;21.204;2022-10-17T10:07:59;13.25;;;7.47;;
22282;SDS011;11310;51.528;21.204;2022-10-17T10:10:30;15.57;;;7.60;;
22282;SDS011;11310;51.528;21.204;2022-10-17T10:13:01;13.25;;;7.68;;
22282;SDS011;11310;51.528;21.204;2022-10-17T10:15:35;18.23;;;7.97;;
22282;SDS011;11310;51.528;21.204;2022-10-17T10:21:33;13.15;;;6.72;;
22282;SDS011;11310;51.528;21.204;2022-10-17T10:24:27;17.13;;;7.80;;
22282;SDS011;11310;51.528;21.204;2022-10-17T10:27:00;13.63;;;7.90;;
22282;SDS011;11310;51.528;21.204;2022-10-17T10:29:33;16.05;;;7.82;;
22282;SDS011;11310;51.528;21.204;2022-10-17T10:32:08;14.70;;;7.53;;
22282;SDS011;11310;51.528;21.204;2022-10-17T10:34:43;16.58;;;8.70;;
22282;SDS011;11310;51.528;21.204;2022-10-17T10:37:17;16.60;;;8.52;;
22282;SDS011;11310;51.528;21.204;2022-10-17T10:39:49;15.23;;;8.00;;
22282;SDS011;11310;51.528;21.204;2022-10-17T10:44:51;17.77;;;7.40;;
22282;SDS011;11310;51.528;21.204;2022-10-17T10:47:26;13.13;;;7.53;;
22282;SDS011;11310;51.528;21.204;2022-10-17T10:50:23;14.60;;;8.10;;
22282;SDS011;11310;51.528;21.204;2022-10-17T10:53:12;13.82;;;7.80;;
22282;SDS011;11310;51.528;21.204;2022-10-17T10:56:07;17.77;;;8.18;;
22282;SDS011;11310;51.528;21.204;2022-10-17T10:58:51;15.27;;;7.90;;
22282;SDS011;11310;51.528;21.204;2022-10-17T11:01:25;14.10;;;7.30;;
22282;SDS011;11310;51.528;21.204;2022-10-17T11:04:05;14.25;;;7.07;;
22282;SDS011;11310;51.528;21.204;2022-10-17T11:06:43;13.93;;;7.13;;
22282;SDS011;11310;51.528;21.204;2022-10-17T11:09:21;12.73;;;7.00;;
22282;SDS011;11310;51.528;21.204;2022-10-17T11:12:00;13.50;;;7.47;;
22282;SDS011;11310;51.528;21.204;2022-10-17T11:14:39;13.20;;;6.45;;
22282;SDS011;11310;51.528;21.204;2022-10-17T11:17:15;11.32;;;7.03;;
22282;SDS011;11310;51.528;21.204;2022-10-17T11:19:53;13.95;;;6.50;;
22282;SDS011;11310;51.528;21.204;2022-10-17T11:22:30;12.13;;;6.75;;
22282;SDS011;11310;51.528;21.204;2022-10-17T11:25:03;12.48;;;6.88;;
22282;SDS011;11310;51.528;21.204;2022-10-17T11:27:40;11.50;;;6.07;;
22282;SDS011;11310;51.528;21.204;2022-10-17T11:30:10;11.20;;;6.85;;
22282;SDS011;11310;51.528;21.204;2022-10-17T11:32:41;12.40;;;7.50;;
22282;SDS011;11310;51.528;21.204;2022-10-17T11:35:15;11.60;;;6.88;;
22282;SDS011;11310;51.528;21.204;2022-10-17T11:37:51;10.65;;;6.32;;
22282;SDS011;11310;51.528;21.204;2022-10-17T11:40:25;9.93;;;6.38;;
22282;SDS011;11310;51.528;21.204;2022-10-17T11:42:58;10.63;;;6.28;;
22282;SDS011;11310;51.528;21.204;2022-10-17T11:45:30;11.05;;;6.35;;
22282;SDS011;11310;51.528;21.204;2022-10-17T11:48:05;17.02;;;6.68;;
22282;SDS011;11310;51.528;21.204;2022-10-17T11:50:41;10.73;;;6.80;;
22282;SDS011;11310;51.528;21.204;2022-10-17T11:53:40;9.57;;;6.45;;
22282;SDS011;11310;51.528;21.204;2022-10-17T11:56:14;9.73;;;6.50;;
22282;SDS011;11310;51.528;21.204;2022-10-17T11:58:49;10.68;;;6.15;;
22282;SDS011;11310;51.528;21.204;2022-10-17T12:01:26;10.43;;;5.97;;
22282;SDS011;11310;51.528;21.204;2022-10-17T12:06:58;12.20;;;6.55;;
22282;SDS011;11310;51.528;21.204;2022-10-17T12:09:39;14.88;;;6.40;;
22282;SDS011;11310;51.528;21.204;2022-10-17T12:12:22;11.52;;;6.32;;
22282;SDS011;11310;51.528;21.204;2022-10-17T12:14:53;8.52;;;5.60;;
22282;SDS011;11310;51.528;21.204;2022-10-17T12:17:55;12.88;;;6.53;;
22282;SDS011;11310;51.528;21.204;2022-10-17T12:20:28;13.65;;;5.93;;
22282;SDS011;11310;51.528;21.204;2022-10-17T12:25:54;12.10;;;6.32;;
22282;SDS011;11310;51.528;21.204;2022-10-17T12:28:31;11.43;;;5.53;;
22282;SDS011;11310;51.528;21.204;2022-10-17T12:31:02;10.35;;;5.88;;
22282;SDS011;11310;51.528;21.204;2022-10-17T12:33:36;12.85;;;5.90;;
22282;SDS011;11310;51.528;21.204;2022-10-17T12:48:11;10.68;;;5.80;;
22282;SDS011;11310;51.528;21.204;2022-10-17T12:53:52;9.23;;;5.47;;
22282;SDS011;11310;51.528;21.204;2022-10-17T12:56:29;14.65;;;5.40;;
22282;SDS011;11310;51.528;21.204;2022-10-17T12:59:06;9.38;;;5.20;;
22282;SDS011;11310;51.528;21.204;2022-10-17T13:01:42;9.77;;;5.20;;
22282;SDS011;11310;51.528;21.204;2022-10-17T13:04:15;9.35;;;5.03;;
22282;SDS011;11310;51.528;21.204;2022-10-17T13:06:46;11.18;;;5.68;;
22282;SDS011;11310;51.528;21.204;2022-10-17T13:11:48;7.47;;;4.47;;
22282;SDS011;11310;51.528;21.204;2022-10-17T13:14:18;9.88;;;5.03;;
22282;SDS011;11310;51.528;21.204;2022-10-17T13:16:50;10.45;;;5.35;;
22282;SDS011;11310;51.528;21.204;2022-10-17T13:19:23;9.27;;;4.82;;
22282;SDS011;11310;51.528;21.204;2022-10-17T13:21:54;9.45;;;5.10;;
22282;SDS011;11310;51.528;21.204;2022-10-17T13:24:31;10.95;;;4.88;;
22282;SDS011;11310;51.528;21.204;2022-10-17T13:27:02;10.15;;;4.82;;
22282;SDS011;11310;51.528;21.204;2022-10-17T13:29:34;12.90;;;4.93;;
22282;SDS011;11310;51.528;21.204;2022-10-17T13:32:14;15.70;;;5.32;;
22282;SDS011;11310;51.528;21.204;2022-10-17T13:34:45;8.88;;;5.00;;
22282;SDS011;11310;51.528;21.204;2022-10-17T13:37:17;11.25;;;5.20;;
22282;SDS011;11310;51.528;21.204;2022-10-17T13:39:46;14.00;;;5.28;;
22282;SDS011;11310;51.528;21.204;2022-10-17T13:42:23;10.82;;;5.00;;
22282;SDS011;11310;51.528;21.204;2022-10-17T13:44:59;11.10;;;5.05;;
22282;SDS011;11310;51.528;21.204;2022-10-17T13:47:35;10.10;;;4.90;;
22282;SDS011;11310;51.528;21.204;2022-10-17T13:50:12;8.55;;;4.40;;
22282;SDS011;11310;51.528;21.204;2022-10-17T13:53:14;7.32;;;4.40;;
22282;SDS011;11310;51.528;21.204;2022-10-17T13:55:50;9.63;;;4.43;;
22282;SDS011;11310;51.528;21.204;2022-10-17T13:58:44;9.50;;;4.03;;
22282;SDS011;11310;51.528;21.204;2022-10-17T14:01:14;10.98;;;3.90;;
22282;SDS011;11310;51.528;21.204;2022-10-17T14:03:44;13.32;;;4.72;;
22282;SDS011;11310;51.528;21.204;2022-10-17T14:06:28;10.82;;;4.70;;
22282;SDS011;11310;51.528;21.204;2022-10-17T14:08:59;9.35;;;4.22;;
22282;SDS011;11310;51.528;21.204;2022-10-17T14:11:33;10.20;;;4.97;;
22282;SDS011;11310;51.528;21.204;2022-10-17T14:14:13;7.63;;;4.45;;
22282;SDS011;11310;51.528;21.204;2022-10-17T14:16:45;7.28;;;4.30;;
22282;SDS011;11310;51.528;21.204;2022-10-17T14:19:23;9.23;;;4.72;;
22282;SDS011;11310;51.528;21.204;2022-10-17T14:21:55;9.32;;;4.90;;
22282;SDS011;11310;51.528;21.204;2022-10-17T14:24:45;9.40;;;4.68;;
22282;SDS011;11310;51.528;21.204;2022-10-17T14:30:05;11.52;;;4.55;;
22282;SDS011;11310;51.528;21.204;2022-10-17T14:33:17;10.52;;;4.53;;
22282;SDS011;11310;51.528;21.204;2022-10-17T14:35:50;10.32;;;5.05;;
22282;SDS011;11310;51.528;21.204;2022-10-17T14:38:23;8.85;;;4.20;;
22282;SDS011;11310;51.528;21.204;2022-10-17T14:40:57;10.55;;;4.18;;
22282;SDS011;11310;51.528;21.204;2022-10-17T14:46:20;13.00;;;5.63;;
22282;SDS011;11310;51.528;21.204;2022-10-17T14:49:02;8.80;;;4.68;;
22282;SDS011;11310;51.528;21.204;2022-10-17T14:51:33;10.10;;;5.00;;
22282;SDS011;11310;51.528;21.204;2022-10-17T14:54:25;12.07;;;4.93;;
22282;SDS011;11310;51.528;21.204;2022-10-17T14:56:55;10.25;;;4.53;;
22282;SDS011;11310;51.528;21.204;2022-10-17T14:59:24;9.13;;;4.95;;
22282;SDS011;11310;51.528;21.204;2022-10-17T15:02:13;10.48;;;5.50;;
22282;SDS011;11310;51.528;21.204;2022-10-17T15:04:43;10.07;;;5.03;;
22282;SDS011;11310;51.528;21.204;2022-10-17T15:07:12;12.55;;;5.07;;
22282;SDS011;11310;51.528;21.204;2022-10-17T15:09:46;10.75;;;5.57;;
22282;SDS011;11310;51.528;21.204;2022-10-17T15:12:17;17.27;;;7.00;;
22282;SDS011;11310;51.528;21.204;2022-10-17T15:14:48;17.88;;;6.95;;
22282;SDS011;11310;51.528;21.204;2022-10-17T15:17:19;19.75;;;8.02;;
22282;SDS011;11310;51.528;21.204;2022-10-17T15:19:51;17.38;;;7.68;;
22282;SDS011;11310;51.528;21.204;2022-10-17T15:22:20;16.60;;;7.82;;
22282;SDS011;11310;51.528;21.204;2022-10-17T15:24:51;16.48;;;8.10;;
22282;SDS011;11310;51.528;21.204;2022-10-17T15:27:21;19.40;;;8.03;;
22282;SDS011;11310;51.528;21.204;2022-10-17T15:29:52;18.90;;;8.07;;
22282;SDS011;11310;51.528;21.204;2022-10-17T15:32:25;19.17;;;7.05;;
22282;SDS011;11310;51.528;21.204;2022-10-17T15:34:56;14.27;;;6.28;;
22282;SDS011;11310;51.528;21.204;2022-10-17T15:37:25;22.95;;;7.18;;
22282;SDS011;11310;51.528;21.204;2022-10-17T15:40:05;20.50;;;7.07;;
22282;SDS011;11310;51.528;21.204;2022-10-17T15:42:40;14.20;;;6.15;;
22282;SDS011;11310;51.528;21.204;2022-10-17T15:45:12;14.05;;;6.30;;
22282;SDS011;11310;51.528;21.204;2022-10-17T15:47:48;15.48;;;6.10;;